PLYK1: Cottonwood River, Plymouth, KS

                                SHEF ID:       PLYK1     COTTONWOOD R NR PLYMOUTH, KS
STATION TYPE:
Regulating: Stage = 28.00, Flow = 11886

PRECIP STAGE STAGE(2) RIV-FLOW BAT-LOAD
in ft ft cfs volt
Ccp-Rev Ccp-Rev Ccp-Rev Ccp-Rev Ccp-Rev
(America/Chicago)
12/01 00:00 0.00 9.06 ---- 1696 12.52
12/01 01:00 0.00 8.99 ---- 1674 12.50
12/01 02:00 0.00 8.93 ---- 1655 12.48
12/01 03:00 0.00 8.87 ---- 1637 12.47
12/01 04:00 0.00 8.81 ---- 1618 12.45
12/01 05:00 0.00 8.74 ---- 1597 12.44
12/01 06:00 0.00 8.68 ---- 1578 12.42
12/01 07:00 0.00 8.61 ---- 1557 12.40
12/01 08:00 0.00 8.55 ---- 1539 12.37
12/01 09:00 0.00 8.48 ---- 1518 12.35
12/01 10:00 0.00 8.41 ---- 1497 12.34
12/01 11:00 0.00 8.36 ---- 1482 12.42
12/01 12:00 0.00 8.29 ---- 1461 12.53
12/01 13:00 0.00 8.22 ---- 1440 12.75
12/01 14:00 0.00 8.16 ---- 1423 12.69
12/01 15:00 0.00 8.10 ---- 1405 12.54
12/01 16:00 0.00 8.05 ---- 1391 12.40
12/01 17:00 0.00 8.00 ---- 1376 12.36
12/01 18:00 0.00 7.95 ---- 1360 12.34
12/01 19:00 0.00 7.90 ---- 1343 12.33
12/01 20:00 0.00 7.85 ---- 1327 12.31
12/01 21:00 0.00 7.81 ---- 1314 12.31
12/01 22:00 0.00 7.77 ---- 1301 12.30
12/01 23:00 0.00 7.73 ---- 1288 12.30
Data processed at Tue 02Dec2025 05:06 GMT

NOTICE: If you are parsing this page

Please convert to using our Data API. Starting January 1st, 2026 we will be migrating to: https://water.usace.army.mil with modern pages rendered in JavaScript. You will no longer be able to scrape this page! CWMSDataAPI (CDA)

Timeseries IDs (TSIDs)

TSIDs used from left to right in the data table
PLYM.Precip-Inc.Total.1Hour.1Hour.Ccp-Rev
PLYM.Stage.Inst.1Hour.0.Ccp-Rev
PLYM.Stage-Alt.Inst.1Hour.0.Ccp-Rev
PLYM.Flow.Inst.1Hour.0.Ccp-Rev
PLYM.Volt-Battery Load.Inst.1Hour.0.Ccp-Rev

                            

All information presented herein is the property of the government of the United States of America and may be revised or deleted at any time without prior notice. Dissemination of this information without the expressed written consent of the Public Affairs Office, Tulsa District U.S. Army Corps of Engineers is strictly prohibited. These data are gathered electronically and, as presented, have NOT undergone any form of quality control. These data are NOT guaranteed to be valid or correct.